sensor_id;sensor_type;location;lat;lon;timestamp;pressure;altitude;pressure_sealevel;temperature;humidity
47897;BME280;39629;51.400;5.494;2023-04-07T00:04:03;101295.84;;;7.48;100.00
47897;BME280;39629;51.400;5.494;2023-04-07T00:09:06;101305.19;;;7.36;100.00
47897;BME280;39629;51.400;5.494;2023-04-07T00:14:08;101311.44;;;7.42;100.00
47897;BME280;39629;51.400;5.494;2023-04-07T00:19:10;101307.97;;;7.43;100.00
47897;BME280;39629;51.400;5.494;2023-04-07T00:24:13;101307.97;;;7.45;100.00
47897;BME280;39629;51.400;5.494;2023-04-07T00:29:14;101307.88;;;7.39;100.00
47897;BME280;39629;51.400;5.494;2023-04-07T00:34:16;101318.38;;;7.40;100.00
47897;BME280;39629;51.400;5.494;2023-04-07T00:39:19;101317.59;;;7.44;100.00
47897;BME280;39629;51.400;5.494;2023-04-07T00:44:21;101309.72;;;7.44;100.00
47897;BME280;39629;51.400;5.494;2023-04-07T00:49:23;101318.38;;;7.40;100.00
47897;BME280;39629;51.400;5.494;2023-04-07T00:54:26;101310.56;;;7.42;100.00
47897;BME280;39629;51.400;5.494;2023-04-07T00:59:28;101307.00;;;7.40;100.00
47897;BME280;39629;51.400;5.494;2023-04-07T01:04:32;101316.63;;;7.39;100.00
47897;BME280;39629;51.400;5.494;2023-04-07T01:09:42;101316.56;;;7.36;100.00
47897;BME280;39629;51.400;5.494;2023-04-07T01:14:50;101316.53;;;7.35;100.00
47897;BME280;39629;51.400;5.494;2023-04-07T01:20:16;101321.69;;;7.30;100.00
47897;BME280;39629;51.400;5.494;2023-04-07T01:25:58;101326.03;;;7.29;100.00
47897;BME280;39629;51.400;5.494;2023-04-07T01:31:03;101330.41;;;7.29;100.00
47897;BME280;39629;51.400;5.494;2023-04-07T01:36:07;101325.09;;;7.26;100.00
47897;BME280;39629;51.400;5.494;2023-04-07T01:41:10;101329.44;;;7.24;100.00
47897;BME280;39629;51.400;5.494;2023-04-07T01:46:16;101321.59;;;7.25;100.00
47897;BME280;39629;51.400;5.494;2023-04-07T01:51:20;101326.81;;;7.24;100.00
47897;BME280;39629;51.400;5.494;2023-04-07T01:56:22;101315.47;;;7.23;100.00
47897;BME280;39629;51.400;5.494;2023-04-07T02:01:28;101332.88;;;7.23;100.00
47897;BME280;39629;51.400;5.494;2023-04-07T02:06:32;101318.97;;;7.24;100.00
47897;BME280;39629;51.400;5.494;2023-04-07T02:11:36;101325.09;;;7.26;100.00
47897;BME280;39629;51.400;5.494;2023-04-07T02:16:40;101332.88;;;7.23;100.00
47897;BME280;39629;51.400;5.494;2023-04-07T02:21:43;101330.25;;;7.21;100.00
47897;BME280;39629;51.400;5.494;2023-04-07T02:26:46;101338.09;;;7.21;100.00
47897;BME280;39629;51.400;5.494;2023-04-07T02:31:49;101338.06;;;7.18;100.00
47897;BME280;39629;51.400;5.494;2023-04-07T02:36:50;101334.50;;;7.16;100.00
47897;BME280;39629;51.400;5.494;2023-04-07T02:41:52;101337.94;;;7.13;100.00
47897;BME280;39629;51.400;5.494;2023-04-07T02:46:55;101350.19;;;7.14;100.00
47897;BME280;39629;51.400;5.494;2023-04-07T02:51:57;101346.69;;;7.14;100.00
47897;BME280;39629;51.400;5.494;2023-04-07T02:56:58;101344.94;;;7.14;100.00
47897;BME280;39629;51.400;5.494;2023-04-07T03:02:02;101341.47;;;7.14;100.00
47897;BME280;39629;51.400;5.494;2023-04-07T03:07:04;101345.78;;;7.12;100.00
47897;BME280;39629;51.400;5.494;2023-04-07T03:12:07;101342.25;;;7.10;100.00
47897;BME280;39629;51.400;5.494;2023-04-07T03:17:12;101343.13;;;7.10;100.00
47897;BME280;39629;51.400;5.494;2023-04-07T03:22:14;101337.00;;;7.08;100.00
47897;BME280;39629;51.400;5.494;2023-04-07T03:27:22;101337.84;;;7.07;100.00
47897;BME280;39629;51.400;5.494;2023-04-07T03:32:25;101330.78;;;7.03;100.00
47897;BME280;39629;51.400;5.494;2023-04-07T03:37:27;101323.78;;;7.04;100.00
47897;BME280;39629;51.400;5.494;2023-04-07T03:42:29;101328.94;;;6.99;100.00
47897;BME280;39629;51.400;5.494;2023-04-07T03:47:37;101326.22;;;6.93;100.00
47897;BME280;39629;51.400;5.494;2023-04-07T03:52:40;101335.72;;;6.88;100.00
47897;BME280;39629;51.400;5.494;2023-04-07T03:57:53;101340.78;;;6.80;100.00
47897;BME280;39629;51.400;5.494;2023-04-07T04:02:56;101339.78;;;6.73;100.00
47897;BME280;39629;51.400;5.494;2023-04-07T04:07:58;101351.16;;;6.75;100.00
47897;BME280;39629;51.400;5.494;2023-04-07T04:13:01;101349.28;;;6.70;100.00
47897;BME280;39629;51.400;5.494;2023-04-07T04:18:08;101350.09;;;6.67;100.00
47897;BME280;39629;51.400;5.494;2023-04-07T04:23:09;101357.97;;;6.69;100.00
47897;BME280;39629;51.400;5.494;2023-04-07T04:28:11;101356.22;;;6.68;100.00
47897;BME280;39629;51.400;5.494;2023-04-07T04:33:15;101359.72;;;6.68;100.00
47897;BME280;39629;51.400;5.494;2023-04-07T04:38:28;101364.91;;;6.65;100.00
47897;BME280;39629;51.400;5.494;2023-04-07T04:43:41;101358.69;;;6.60;100.00
47897;BME280;39629;51.400;5.494;2023-04-07T04:48:45;101368.19;;;6.58;100.00
47897;BME280;39629;51.400;5.494;2023-04-07T04:53:47;101367.31;;;6.56;100.00
47897;BME280;39629;51.400;5.494;2023-04-07T04:58:49;101376.75;;;6.51;100.00
47897;BME280;39629;51.400;5.494;2023-04-07T05:04:00;101381.13;;;6.50;100.00
47897;BME280;39629;51.400;5.494;2023-04-07T05:09:03;101387.19;;;6.49;100.00
47897;BME280;39629;51.400;5.494;2023-04-07T05:14:13;101389.84;;;6.51;100.00
47897;BME280;39629;51.400;5.494;2023-04-07T05:19:22;101388.16;;;6.53;100.00
47897;BME280;39629;51.400;5.494;2023-04-07T05:24:28;101398.63;;;6.53;100.00
47897;BME280;39629;51.400;5.494;2023-04-07T05:29:33;101407.44;;;6.58;100.00
47897;BME280;39629;51.400;5.494;2023-04-07T05:34:37;101409.19;;;6.59;100.00
47897;BME280;39629;51.400;5.494;2023-04-07T05:39:40;101408.38;;;6.60;100.00
47897;BME280;39629;51.400;5.494;2023-04-07T05:44:46;101416.22;;;6.60;100.00
47897;BME280;39629;51.400;5.494;2023-04-07T05:49:49;101420.59;;;6.61;100.00
47897;BME280;39629;51.400;5.494;2023-04-07T05:54:51;101412.81;;;6.64;100.00
47897;BME280;39629;51.400;5.494;2023-04-07T05:59:54;101420.63;;;6.62;100.00
47897;BME280;39629;51.400;5.494;2023-04-07T06:04:58;101427.56;;;6.62;100.00
47897;BME280;39629;51.400;5.494;2023-04-07T06:09:59;101433.81;;;6.67;100.00
47897;BME280;39629;51.400;5.494;2023-04-07T06:15:01;101426.78;;;6.66;100.00
47897;BME280;39629;51.400;5.494;2023-04-07T06:20:05;101445.13;;;6.68;100.00
47897;BME280;39629;51.400;5.494;2023-04-07T06:25:08;101435.03;;;6.83;100.00
47897;BME280;39629;51.400;5.494;2023-04-07T06:30:10;101432.53;;;6.89;100.00
47897;BME280;39629;51.400;5.494;2023-04-07T06:35:13;101443.94;;;6.91;100.00
47897;BME280;39629;51.400;5.494;2023-04-07T06:40:15;101441.63;;;7.05;100.00
47897;BME280;39629;51.400;5.494;2023-04-07T06:45:16;101440.38;;;7.29;100.00
47897;BME280;39629;51.400;5.494;2023-04-07T06:50:19;101455.88;;;7.20;100.00
47897;BME280;39629;51.400;5.494;2023-04-07T06:55:21;101456.31;;;7.41;100.00
47897;BME280;39629;51.400;5.494;2023-04-07T07:00:23;101461.13;;;7.64;100.00
47897;BME280;39629;51.400;5.494;2023-04-07T07:05:26;101465.13;;;7.46;100.00
47897;BME280;39629;51.400;5.494;2023-04-07T07:10:28;101474.00;;;7.53;100.00
47897;BME280;39629;51.400;5.494;2023-04-07T07:15:30;101475.13;;;7.67;100.00
47897;BME280;39629;51.400;5.494;2023-04-07T07:20:32;101486.63;;;7.74;100.00
47897;BME280;39629;51.400;5.494;2023-04-07T07:25:34;101491.09;;;7.80;100.00
47897;BME280;39629;51.400;5.494;2023-04-07T07:30:38;101482.81;;;8.03;100.00
47897;BME280;39629;51.400;5.494;2023-04-07T07:35:42;101485.94;;;8.32;100.00
47897;BME280;39629;51.400;5.494;2023-04-07T07:40:43;101496.69;;;8.50;100.00
47897;BME280;39629;51.400;5.494;2023-04-07T07:45:46;101497.13;;;8.78;100.00
47897;BME280;39629;51.400;5.494;2023-04-07T07:50:49;101499.75;;;8.77;100.00
47897;BME280;39629;51.400;5.494;2023-04-07T07:55:51;101507.38;;;8.61;100.00
47897;BME280;39629;51.400;5.494;2023-04-07T08:00:55;101515.06;;;8.50;100.00
47897;BME280;39629;51.400;5.494;2023-04-07T08:05:58;101517.97;;;8.67;100.00
47897;BME280;39629;51.400;5.494;2023-04-07T08:11:00;101521.88;;;8.94;100.00
47897;BME280;39629;51.400;5.494;2023-04-07T08:16:02;101514.22;;;9.05;100.00
47897;BME280;39629;51.400;5.494;2023-04-07T08:21:06;101529.59;;;8.83;100.00
47897;BME280;39629;51.400;5.494;2023-04-07T08:26:07;101532.75;;;8.61;100.00
47897;BME280;39629;51.400;5.494;2023-04-07T08:31:09;101541.28;;;9.02;100.00
47897;BME280;39629;51.400;5.494;2023-04-07T08:36:12;101544.66;;;8.95;100.00
47897;BME280;39629;51.400;5.494;2023-04-07T08:41:17;101544.59;;;8.92;100.00
47897;BME280;39629;51.400;5.494;2023-04-07T08:46:21;101548.00;;;8.86;100.00
47897;BME280;39629;51.400;5.494;2023-04-07T08:51:27;101542.53;;;8.71;100.00
47897;BME280;39629;51.400;5.494;2023-04-07T08:56:31;101553.66;;;9.11;100.00
47897;BME280;39629;51.400;5.494;2023-04-07T09:01:34;101560.69;;;9.12;100.00
47897;BME280;39629;51.400;5.494;2023-04-07T09:06:37;101559.91;;;9.19;100.00
47897;BME280;39629;51.400;5.494;2023-04-07T09:11:39;101561.50;;;9.08;100.00
47897;BME280;39629;51.400;5.494;2023-04-07T09:16:41;101572.44;;;8.82;100.00
47897;BME280;39629;51.400;5.494;2023-04-07T09:21:48;101579.53;;;8.90;100.00
47897;BME280;39629;51.400;5.494;2023-04-07T09:26:50;101574.72;;;9.14;100.00
47897;BME280;39629;51.400;5.494;2023-04-07T09:31:52;101569.69;;;9.30;100.00
47897;BME280;39629;51.400;5.494;2023-04-07T09:36:56;101569.81;;;9.39;100.00
47897;BME280;39629;51.400;5.494;2023-04-07T09:42:05;101558.34;;;10.03;100.00
47897;BME280;39629;51.400;5.494;2023-04-07T09:47:07;101553.63;;;10.62;100.00
47897;BME280;39629;51.400;5.494;2023-04-07T09:52:10;101561.09;;;10.15;100.00
47897;BME280;39629;51.400;5.494;2023-04-07T09:57:11;101561.97;;;10.17;100.00
47897;BME280;39629;51.400;5.494;2023-04-07T10:02:14;101560.13;;;10.07;100.00
47897;BME280;39629;51.400;5.494;2023-04-07T10:07:17;101567.00;;;9.93;100.00
47897;BME280;39629;51.400;5.494;2023-04-07T10:12:19;101568.69;;;9.87;100.00
47897;BME280;39629;51.400;5.494;2023-04-07T10:17:20;101568.78;;;9.97;100.00
47897;BME280;39629;51.400;5.494;2023-04-07T10:22:24;101572.63;;;10.30;100.00
47897;BME280;39629;51.400;5.494;2023-04-07T10:27:30;101579.03;;;10.56;100.00
47897;BME280;39629;51.400;5.494;2023-04-07T10:32:45;101588.63;;;10.48;100.00
47897;BME280;39629;51.400;5.494;2023-04-07T10:38:10;101586.59;;;10.22;100.00
47897;BME280;39629;51.400;5.494;2023-04-07T10:43:36;101589.94;;;10.09;100.00
47897;BME280;39629;51.400;5.494;2023-04-07T10:48:38;101596.31;;;9.58;100.00
47897;BME280;39629;51.400;5.494;2023-04-07T10:59:26;101592.50;;;10.00;100.00
47897;BME280;39629;51.400;5.494;2023-04-07T11:04:35;101593.78;;;10.39;100.00
47897;BME280;39629;51.400;5.494;2023-04-07T11:09:37;101590.25;;;11.46;100.00
47897;BME280;39629;51.400;5.494;2023-04-07T11:14:40;101612.78;;;11.01;100.00
47897;BME280;39629;51.400;5.494;2023-04-07T11:19:49;101604.06;;;11.06;100.00
47897;BME280;39629;51.400;5.494;2023-04-07T11:24:51;101599.38;;;10.76;100.00
47897;BME280;39629;51.400;5.494;2023-04-07T11:29:55;101610.63;;;10.55;100.00
47897;BME280;39629;51.400;5.494;2023-04-07T11:34:57;101608.88;;;10.59;100.00
47897;BME280;39629;51.400;5.494;2023-04-07T11:39:58;101615.56;;;11.19;100.00
47897;BME280;39629;51.400;5.494;2023-04-07T11:45:01;101619.97;;;11.20;100.00
47897;BME280;39629;51.400;5.494;2023-04-07T11:50:04;101613.75;;;11.14;100.00
47897;BME280;39629;51.400;5.494;2023-04-07T11:55:06;101611.41;;;11.58;100.00
47897;BME280;39629;51.400;5.494;2023-04-07T12:00:19;101613.22;;;11.73;100.00
47897;BME280;39629;51.400;5.494;2023-04-07T12:05:20;101623.34;;;11.04;100.00
47897;BME280;39629;51.400;5.494;2023-04-07T12:10:24;101623.34;;;11.02;100.00
47897;BME280;39629;51.400;5.494;2023-04-07T12:15:27;101630.22;;;10.85;100.00
47897;BME280;39629;51.400;5.494;2023-04-07T12:20:28;101636.53;;;11.04;100.00
47897;BME280;39629;51.400;5.494;2023-04-07T12:25:30;101645.88;;;10.74;100.00
47897;BME280;39629;51.400;5.494;2023-04-07T12:30:33;101648.34;;;10.59;100.00
47897;BME280;39629;51.400;5.494;2023-04-07T12:35:35;101653.56;;;10.52;100.00
47897;BME280;39629;51.400;5.494;2023-04-07T12:40:38;101658.28;;;10.06;100.00
47897;BME280;39629;51.400;5.494;2023-04-07T12:45:41;101661.34;;;10.42;100.00
47897;BME280;39629;51.400;5.494;2023-04-07T12:50:42;101670.63;;;10.90;100.00
47897;BME280;39629;51.400;5.494;2023-04-07T12:55:46;101664.53;;;10.93;100.00
47897;BME280;39629;51.400;5.494;2023-04-07T13:00:49;101666.25;;;10.90;100.00
47897;BME280;39629;51.400;5.494;2023-04-07T13:05:51;101668.88;;;10.90;100.00
47897;BME280;39629;51.400;5.494;2023-04-07T13:10:54;101674.84;;;10.76;100.00
47897;BME280;39629;51.400;5.494;2023-04-07T13:15:57;101678.00;;;10.44;100.00
47897;BME280;39629;51.400;5.494;2023-04-07T13:20:59;101677.66;;;10.11;100.00
47897;BME280;39629;51.400;5.494;2023-04-07T13:26:01;101683.75;;;10.10;100.00
47897;BME280;39629;51.400;5.494;2023-04-07T13:31:04;101684.91;;;10.31;100.00
47897;BME280;39629;51.400;5.494;2023-04-07T13:36:05;101682.47;;;10.49;100.00
47897;BME280;39629;51.400;5.494;2023-04-07T13:41:07;101692.81;;;10.34;100.00
47897;BME280;39629;51.400;5.494;2023-04-07T13:46:12;101691.84;;;10.26;100.00
47897;BME280;39629;51.400;5.494;2023-04-07T13:51:15;101697.06;;;10.22;100.00
47897;BME280;39629;51.400;5.494;2023-04-07T13:56:17;101698.63;;;10.05;100.00
47897;BME280;39629;51.400;5.494;2023-04-07T14:01:20;101688.13;;;10.08;100.00
47897;BME280;39629;51.400;5.494;2023-04-07T14:06:21;101694.28;;;10.10;100.00
47897;BME280;39629;51.400;5.494;2023-04-07T14:11:23;101687.34;;;10.14;100.00
47897;BME280;39629;51.400;5.494;2023-04-07T14:16:26;101687.50;;;10.28;100.00
47897;BME280;39629;51.400;5.494;2023-04-07T14:21:28;101679.88;;;10.51;100.00
47897;BME280;39629;51.400;5.494;2023-04-07T14:26:30;101679.75;;;10.40;100.00
47897;BME280;39629;51.400;5.494;2023-04-07T14:31:33;101683.34;;;10.48;100.00
47897;BME280;39629;51.400;5.494;2023-04-07T14:36:35;101689.31;;;10.33;100.00
47897;BME280;39629;51.400;5.494;2023-04-07T14:41:36;101697.19;;;10.32;100.00
47897;BME280;39629;51.400;5.494;2023-04-07T14:46:39;101688.16;;;10.11;100.00
47897;BME280;39629;51.400;5.494;2023-04-07T14:51:41;101704.78;;;10.07;100.00
47897;BME280;39629;51.400;5.494;2023-04-07T14:56:44;101706.56;;;10.10;100.00
47897;BME280;39629;51.400;5.494;2023-04-07T15:01:47;101710.84;;;10.03;100.00
47897;BME280;39629;51.400;5.494;2023-04-07T15:06:49;101704.81;;;10.10;100.00
47897;BME280;39629;51.400;5.494;2023-04-07T15:11:50;101719.50;;;9.93;100.00
47897;BME280;39629;51.400;5.494;2023-04-07T15:16:53;101722.22;;;10.02;100.00
47897;BME280;39629;51.400;5.494;2023-04-07T15:21:55;101719.25;;;9.77;100.00
47897;BME280;39629;51.400;5.494;2023-04-07T15:26:56;101717.41;;;9.70;100.00
47897;BME280;39629;51.400;5.494;2023-04-07T15:31:59;101720.13;;;9.75;100.00
47897;BME280;39629;51.400;5.494;2023-04-07T15:37:01;101726.06;;;9.64;100.00
47897;BME280;39629;51.400;5.494;2023-04-07T15:42:03;101727.84;;;9.64;100.00
47897;BME280;39629;51.400;5.494;2023-04-07T15:47:08;101729.28;;;9.45;100.00
47897;BME280;39629;51.400;5.494;2023-04-07T15:52:10;101733.53;;;9.36;100.00
47897;BME280;39629;51.400;5.494;2023-04-07T15:57:12;101732.59;;;9.33;100.00
47897;BME280;39629;51.400;5.494;2023-04-07T16:02:17;101736.09;;;9.33;100.00
47897;BME280;39629;51.400;5.494;2023-04-07T16:07:19;101746.78;;;9.43;100.00
47897;BME280;39629;51.400;5.494;2023-04-07T16:12:20;101745.91;;;9.45;100.00
47897;BME280;39629;51.400;5.494;2023-04-07T16:17:23;101747.50;;;9.35;100.00
47897;BME280;39629;51.400;5.494;2023-04-07T16:22:25;101753.09;;;9.54;100.00
47897;BME280;39629;51.400;5.494;2023-04-07T16:27:27;101752.84;;;9.39;100.00
47897;BME280;39629;51.400;5.494;2023-04-07T16:32:30;101755.53;;;9.43;100.00
47897;BME280;39629;51.400;5.494;2023-04-07T16:37:31;101761.84;;;9.54;100.00
47897;BME280;39629;51.400;5.494;2023-04-07T16:42:33;101762.47;;;9.41;100.00
47897;BME280;39629;51.400;5.494;2023-04-07T16:47:37;101765.03;;;9.35;100.00
47897;BME280;39629;51.400;5.494;2023-04-07T16:52:38;101770.31;;;9.38;100.00
47897;BME280;39629;51.400;5.494;2023-04-07T16:57:40;101779.88;;;9.33;100.00
47897;BME280;39629;51.400;5.494;2023-04-07T17:02:43;101772.81;;;9.29;100.00
47897;BME280;39629;51.400;5.494;2023-04-07T17:07:46;101787.56;;;9.20;100.00
47897;BME280;39629;51.400;5.494;2023-04-07T17:12:47;101785.63;;;9.12;100.00
47897;BME280;39629;51.400;5.494;2023-04-07T17:17:53;101792.59;;;9.10;100.00
47897;BME280;39629;51.400;5.494;2023-04-07T17:22:55;101812.69;;;9.09;100.00
47897;BME280;39629;51.400;5.494;2023-04-07T17:27:56;101804.03;;;9.13;100.00
47897;BME280;39629;51.400;5.494;2023-04-07T17:32:59;101815.28;;;9.08;100.00
47897;BME280;39629;51.400;5.494;2023-04-07T17:38:02;101831.81;;;9.02;100.00
47897;BME280;39629;51.400;5.494;2023-04-07T17:43:04;101828.13;;;8.94;100.00
47897;BME280;39629;51.400;5.494;2023-04-07T17:48:08;101828.84;;;8.85;100.00
47897;BME280;39629;51.400;5.494;2023-04-07T17:53:11;101841.97;;;8.85;100.00
47897;BME280;39629;51.400;5.494;2023-04-07T17:58:12;101855.06;;;8.83;100.00
47897;BME280;39629;51.400;5.494;2023-04-07T18:03:16;101852.34;;;8.79;100.00
47897;BME280;39629;51.400;5.494;2023-04-07T18:08:18;101862.78;;;8.77;100.00
47897;BME280;39629;51.400;5.494;2023-04-07T18:13:20;101867.19;;;8.78;100.00
47897;BME280;39629;51.400;5.494;2023-04-07T18:18:23;101874.13;;;8.75;100.00
47897;BME280;39629;51.400;5.494;2023-04-07T18:23:25;101874.72;;;8.61;100.00
47897;BME280;39629;51.400;5.494;2023-04-07T18:28:26;101879.09;;;8.61;100.00
47897;BME280;39629;51.400;5.494;2023-04-07T18:33:29;101885.19;;;8.60;100.00
47897;BME280;39629;51.400;5.494;2023-04-07T18:38:32;101888.69;;;8.60;100.00
47897;BME280;39629;51.400;5.494;2023-04-07T18:43:34;101888.56;;;8.54;100.00
47897;BME280;39629;51.400;5.494;2023-04-07T18:48:36;101900.72;;;8.50;100.00
47897;BME280;39629;51.400;5.494;2023-04-07T18:53:40;101903.22;;;8.46;100.00
47897;BME280;39629;51.400;5.494;2023-04-07T18:58:41;101911.88;;;8.42;100.00
47897;BME280;39629;51.400;5.494;2023-04-07T19:03:47;101917.09;;;8.40;100.00
47897;BME280;39629;51.400;5.494;2023-04-07T19:08:48;101925.81;;;8.39;100.00
47897;BME280;39629;51.400;5.494;2023-04-07T19:13:50;101929.19;;;8.33;100.00
47897;BME280;39629;51.400;5.494;2023-04-07T19:18:54;101934.38;;;8.32;100.00
47897;BME280;39629;51.400;5.494;2023-04-07T19:23:55;101939.56;;;8.29;100.00
47897;BME280;39629;51.400;5.494;2023-04-07T19:28:58;101940.41;;;8.28;100.00
47897;BME280;39629;51.400;5.494;2023-04-07T19:34:02;101943.91;;;8.28;100.00
47897;BME280;39629;51.400;5.494;2023-04-07T19:39:04;101941.25;;;8.27;100.00
47897;BME280;39629;51.400;5.494;2023-04-07T19:44:06;101941.13;;;8.21;100.00
47897;BME280;39629;51.400;5.494;2023-04-07T19:49:09;101948.09;;;8.22;100.00
47897;BME280;39629;51.400;5.494;2023-04-07T19:54:10;101947.13;;;8.16;100.00
47897;BME280;39629;51.400;5.494;2023-04-07T19:59:12;101963.69;;;8.15;100.00
47897;BME280;39629;51.400;5.494;2023-04-07T20:04:15;101972.47;;;8.17;100.00
47897;BME280;39629;51.400;5.494;2023-04-07T20:09:17;101967.13;;;8.13;100.00
47897;BME280;39629;51.400;5.494;2023-04-07T20:14:19;101971.50;;;8.12;100.00
47897;BME280;39629;51.400;5.494;2023-04-07T20:19:22;101962.72;;;8.12;100.00
47897;BME280;39629;51.400;5.494;2023-04-07T20:24:24;101968.66;;;8.05;100.00
47897;BME280;39629;51.400;5.494;2023-04-07T20:29:25;101981.81;;;8.06;100.00
47897;BME280;39629;51.400;5.494;2023-04-07T20:34:28;101987.06;;;8.06;100.00
47897;BME280;39629;51.400;5.494;2023-04-07T20:39:30;101992.22;;;8.03;100.00
47897;BME280;39629;51.400;5.494;2023-04-07T20:44:32;101997.47;;;8.03;100.00
47897;BME280;39629;51.400;5.494;2023-04-07T20:49:35;102004.34;;;7.99;100.00
47897;BME280;39629;51.400;5.494;2023-04-07T20:54:39;102001.72;;;7.99;100.00
47897;BME280;39629;51.400;5.494;2023-04-07T20:59:44;102004.31;;;7.98;100.00
47897;BME280;39629;51.400;5.494;2023-04-07T21:04:46;102005.97;;;7.94;100.00
47897;BME280;39629;51.400;5.494;2023-04-07T21:09:48;102009.41;;;7.92;100.00
47897;BME280;39629;51.400;5.494;2023-04-07T21:14:50;102009.34;;;7.89;100.00
47897;BME280;39629;51.400;5.494;2023-04-07T21:19:52;102011.91;;;7.87;100.00
47897;BME280;39629;51.400;5.494;2023-04-07T21:24:54;102009.28;;;7.87;100.00
47897;BME280;39629;51.400;5.494;2023-04-07T21:29:56;102013.63;;;7.87;100.00
47897;BME280;39629;51.400;5.494;2023-04-07T21:34:59;102006.50;;;7.81;100.00
47897;BME280;39629;51.400;5.494;2023-04-07T21:40:01;102008.00;;;7.73;100.00
47897;BME280;39629;51.400;5.494;2023-04-07T21:45:03;102011.31;;;7.65;100.00
47897;BME280;39629;51.400;5.494;2023-04-07T21:50:07;102013.84;;;7.62;100.00
47897;BME280;39629;51.400;5.494;2023-04-07T21:55:08;102019.88;;;7.60;100.00
47897;BME280;39629;51.400;5.494;2023-04-07T22:00:11;102015.47;;;7.59;100.00
47897;BME280;39629;51.400;5.494;2023-04-07T22:05:17;102019.75;;;7.55;100.00
47897;BME280;39629;51.400;5.494;2023-04-07T22:10:19;102019.63;;;7.50;100.00
47897;BME280;39629;51.400;5.494;2023-04-07T22:15:21;102026.50;;;7.47;100.00
47897;BME280;39629;51.400;5.494;2023-04-07T22:20:24;102031.69;;;7.45;100.00
47897;BME280;39629;51.400;5.494;2023-04-07T22:25:26;102027.22;;;7.41;100.00
47897;BME280;39629;51.400;5.494;2023-04-07T22:30:28;102028.72;;;7.33;100.00
47897;BME280;39629;51.400;5.494;2023-04-07T22:35:31;102038.22;;;7.29;100.00
47897;BME280;39629;51.400;5.494;2023-04-07T22:40:32;102036.47;;;7.30;100.00
47897;BME280;39629;51.400;5.494;2023-04-07T22:45:34;102044.31;;;7.30;100.00
47897;BME280;39629;51.400;5.494;2023-04-07T22:50:37;102047.91;;;7.32;100.00
47897;BME280;39629;51.400;5.494;2023-04-07T22:55:38;102046.03;;;7.28;100.00
47897;BME280;39629;51.400;5.494;2023-04-07T23:00:40;102045.00;;;7.23;100.00
47897;BME280;39629;51.400;5.494;2023-04-07T23:05:43;102044.91;;;7.20;100.00
47897;BME280;39629;51.400;5.494;2023-04-07T23:10:45;102049.31;;;7.21;100.00
47897;BME280;39629;51.400;5.494;2023-04-07T23:15:46;102049.19;;;7.18;100.00
47897;BME280;39629;51.400;5.494;2023-04-07T23:20:50;102055.41;;;7.21;100.00
47897;BME280;39629;51.400;5.494;2023-04-07T23:25:52;102053.59;;;7.19;100.00
47897;BME280;39629;51.400;5.494;2023-04-07T23:30:53;102054.28;;;7.13;100.00
47897;BME280;39629;51.400;5.494;2023-04-07T23:35:58;102051.59;;;7.10;100.00
47897;BME280;39629;51.400;5.494;2023-04-07T23:40:59;102055.00;;;7.07;100.00
47897;BME280;39629;51.400;5.494;2023-04-07T23:46:01;102058.44;;;7.06;100.00
47897;BME280;39629;51.400;5.494;2023-04-07T23:51:04;102056.00;;;7.11;100.00
47897;BME280;39629;51.400;5.494;2023-04-07T23:56:06;102069.88;;;7.08;100.00
